FDX448 YMAV-YMML
Flight info
| Callsign | FDX448 |
|---|---|
| Flight time | 0h 22m |
| Altitude | 6000 |
| Route | ML |
| Aircraft | MD11/H-SDE1E2E3FGHIJ2J3J4J5M1RWXY/LB1D1 |
Departure
| Time | 2026-04-30 10:22 |
|---|---|
| Airport | Melbourne Avalon International Airport (YMAV) |
Arrival
| Time | 2026-04-30 10:44 |
|---|---|
| Airport | Melbourne Airport (YMML) |
| Time | Latitude | Longitude | Altitude | Speed | Heading |
|---|---|---|---|---|---|
| 2026-04-30 09:56 | -38.02743 | 144.47490 | 42 ft | 0 kts | 5° |
| 2026-04-30 10:06 | -38.02751 | 144.47489 | 43 ft | 2 kts | 5° |
| 2026-04-30 10:07 | -38.02767 | 144.47487 | 42 ft | 2 kts | 3° |
| 2026-04-30 10:07 | -38.02783 | 144.47488 | 41 ft | 2 kts | 330° |
| 2026-04-30 10:07 | -38.02795 | 144.47501 | 42 ft | 2 kts | 297° |
| 2026-04-30 10:07 | -38.02799 | 144.47512 | 42 ft | 0 kts | 279° |
| 2026-04-30 10:10 | -38.02799 | 144.47511 | 43 ft | 1 kts | 279° |
| 2026-04-30 10:11 | -38.02793 | 144.47453 | 43 ft | 11 kts | 274° |
| 2026-04-30 10:11 | -38.02800 | 144.47391 | 41 ft | 2 kts | 231° |
| 2026-04-30 10:11 | -38.02830 | 144.47376 | 43 ft | 10 kts | 199° |
| 2026-04-30 10:11 | -38.02945 | 144.47351 | 43 ft | 23 kts | 187° |
| 2026-04-30 10:12 | -38.03126 | 144.47312 | 43 ft | 25 kts | 200° |
| 2026-04-30 10:12 | -38.03227 | 144.47191 | 43 ft | 0 kts | 233° |
| 2026-04-30 10:12 | -38.03228 | 144.47189 | 43 ft | 2 kts | 236° |
| 2026-04-30 10:13 | -38.03278 | 144.47102 | 42 ft | 19 kts | 220° |
| 2026-04-30 10:13 | -38.03430 | 144.47034 | 44 ft | 26 kts | 189° |
| 2026-04-30 10:13 | -38.03583 | 144.47011 | 44 ft | 4 kts | 185° |
| 2026-04-30 10:13 | -38.03586 | 144.47011 | 42 ft | 2 kts | 185° |
| 2026-04-30 10:14 | -38.03624 | 144.47006 | 44 ft | 8 kts | 186° |
| 2026-04-30 10:14 | -38.03700 | 144.46994 | 44 ft | 14 kts | 187° |
| 2026-04-30 10:14 | -38.03965 | 144.46948 | 43 ft | 24 kts | 188° |
| 2026-04-30 10:15 | -38.04151 | 144.46914 | 42 ft | 29 kts | 188° |
| 2026-04-30 10:15 | -38.04366 | 144.46876 | 43 ft | 33 kts | 187° |
| 2026-04-30 10:15 | -38.04610 | 144.46835 | 43 ft | 37 kts | 187° |
| 2026-04-30 10:15 | -38.04877 | 144.46792 | 44 ft | 40 kts | 187° |
| 2026-04-30 10:16 | -38.05003 | 144.46771 | 44 ft | 2 kts | 187° |
| 2026-04-30 10:16 | -38.05053 | 144.46763 | 43 ft | 14 kts | 187° |
| 2026-04-30 10:16 | -38.05196 | 144.46740 | 42 ft | 28 kts | 187° |
| 2026-04-30 10:17 | -38.05428 | 144.46653 | 44 ft | 0 kts | 231° |
| 2026-04-30 10:18 | -38.05430 | 144.46650 | 44 ft | 1 kts | 231° |
| 2026-04-30 10:19 | -38.05434 | 144.46644 | 44 ft | 0 kts | 231° |
| 2026-04-30 10:20 | -38.05434 | 144.46643 | 41 ft | 1 kts | 231° |
| 2026-04-30 10:20 | -38.05408 | 144.46500 | 45 ft | 12 kts | 327° |
| 2026-04-30 10:20 | -38.05326 | 144.46500 | 43 ft | 9 kts | 10° |
| 2026-04-30 10:21 | -38.05321 | 144.46501 | 44 ft | 0 kts | 10° |
| 2026-04-30 10:21 | -38.05304 | 144.46504 | 44 ft | 10 kts | 10° |
| 2026-04-30 10:21 | -38.04965 | 144.46563 | 41 ft | 102 kts | 7° |
| 2026-04-30 10:21 | -38.03933 | 144.46742 | 84 ft | 185 kts | 8° |
| 2026-04-30 10:22 | -38.02686 | 144.46967 | 1089 ft | 163 kts | 7° |
| 2026-04-30 10:22 | -38.01617 | 144.47293 | 2376 ft | 156 kts | 22° |
| 2026-04-30 10:22 | -38.00697 | 144.48159 | 3226 ft | 182 kts | 36° |
| 2026-04-30 10:22 | -37.99690 | 144.49361 | 3770 ft | 205 kts | 39° |
| 2026-04-30 10:23 | -37.98652 | 144.50655 | 4718 ft | 215 kts | 40° |
| 2026-04-30 10:23 | -37.97574 | 144.52012 | 5123 ft | 219 kts | 40° |
| 2026-04-30 10:23 | -37.96492 | 144.53385 | 5494 ft | 221 kts | 40° |
| 2026-04-30 10:23 | -37.95402 | 144.54775 | 5855 ft | 224 kts | 40° |
| 2026-04-30 10:24 | -37.94270 | 144.56190 | 5963 ft | 241 kts | 38° |
| 2026-04-30 10:24 | -37.92908 | 144.57633 | 5976 ft | 263 kts | 35° |
| 2026-04-30 10:24 | -37.91457 | 144.59086 | 5978 ft | 267 kts | 34° |
| 2026-04-30 10:24 | -37.89993 | 144.60541 | 5976 ft | 268 kts | 34° |
| 2026-04-30 10:25 | -37.88523 | 144.61998 | 5985 ft | 268 kts | 34° |
| 2026-04-30 10:25 | -37.87057 | 144.63452 | 5984 ft | 268 kts | 34° |
| 2026-04-30 10:25 | -37.85593 | 144.64903 | 5988 ft | 267 kts | 34° |
| 2026-04-30 10:25 | -37.84133 | 144.66348 | 5987 ft | 266 kts | 34° |
| 2026-04-30 10:26 | -37.82695 | 144.67774 | 5981 ft | 255 kts | 34° |
| 2026-04-30 10:26 | -37.81360 | 144.69101 | 5977 ft | 240 kts | 34° |
| 2026-04-30 10:26 | -37.80052 | 144.70398 | 5986 ft | 234 kts | 33° |
| 2026-04-30 10:26 | -37.78772 | 144.71660 | 5990 ft | 233 kts | 33° |
| 2026-04-30 10:27 | -37.77509 | 144.72905 | 5999 ft | 233 kts | 33° |
| 2026-04-30 10:27 | -37.76217 | 144.74185 | 5996 ft | 233 kts | 36° |
| 2026-04-30 10:27 | -37.75246 | 144.75848 | 5980 ft | 242 kts | 65° |
| 2026-04-30 10:27 | -37.74927 | 144.77963 | 6021 ft | 249 kts | 80° |
| 2026-04-30 10:28 | -37.74800 | 144.80126 | 6003 ft | 250 kts | 82° |
| 2026-04-30 10:28 | -37.74683 | 144.82317 | 6000 ft | 250 kts | 82° |
| 2026-04-30 10:28 | -37.74565 | 144.84507 | 5893 ft | 249 kts | 82° |
| 2026-04-30 10:28 | -37.74452 | 144.86683 | 5569 ft | 248 kts | 81° |
| 2026-04-30 10:29 | -37.74365 | 144.88838 | 5310 ft | 244 kts | 81° |
| 2026-04-30 10:29 | -37.74302 | 144.90975 | 5029 ft | 243 kts | 82° |
| 2026-04-30 10:29 | -37.74245 | 144.93095 | 4729 ft | 240 kts | 81° |
| 2026-04-30 10:29 | -37.74445 | 144.95208 | 4320 ft | 250 kts | 106° |
| 2026-04-30 10:30 | -37.75452 | 144.97017 | 4045 ft | 256 kts | 138° |
| 2026-04-30 10:30 | -37.77026 | 144.98038 | 4017 ft | 259 kts | 160° |
| 2026-04-30 10:30 | -37.78748 | 144.98731 | 4024 ft | 259 kts | 162° |
| 2026-04-30 10:30 | -37.80462 | 144.99413 | 3992 ft | 258 kts | 162° |
| 2026-04-30 10:31 | -37.82171 | 145.00115 | 3994 ft | 258 kts | 162° |
| 2026-04-30 10:31 | -37.83874 | 145.00815 | 3990 ft | 258 kts | 162° |
| 2026-04-30 10:31 | -37.85583 | 145.01519 | 3986 ft | 257 kts | 162° |
| 2026-04-30 10:31 | -37.87283 | 145.02216 | 3985 ft | 257 kts | 162° |
| 2026-04-30 10:32 | -37.88985 | 145.02914 | 3997 ft | 257 kts | 162° |
| 2026-04-30 10:32 | -37.90685 | 145.03613 | 3987 ft | 257 kts | 162° |
| 2026-04-30 10:32 | -37.92383 | 145.04313 | 3982 ft | 257 kts | 162° |
| 2026-04-30 10:32 | -37.94078 | 145.05010 | 3992 ft | 257 kts | 162° |
| 2026-04-30 10:33 | -37.95780 | 145.05708 | 3977 ft | 257 kts | 162° |
| 2026-04-30 10:33 | -37.97479 | 145.06403 | 3987 ft | 257 kts | 162° |
| 2026-04-30 10:33 | -37.99160 | 145.07088 | 3646 ft | 252 kts | 162° |
| 2026-04-30 10:33 | -38.00842 | 145.07772 | 3282 ft | 256 kts | 162° |
| 2026-04-30 10:34 | -38.02546 | 145.08322 | 3003 ft | 251 kts | 178° |
| 2026-04-30 10:34 | -38.04230 | 145.07926 | 2981 ft | 246 kts | 210° |
| 2026-04-30 10:34 | -38.05498 | 145.06565 | 2988 ft | 236 kts | 242° |
| 2026-04-30 10:34 | -38.06012 | 145.04668 | 2974 ft | 224 kts | 273° |
| 2026-04-30 10:35 | -38.05692 | 145.02796 | 2993 ft | 216 kts | 298° |
| 2026-04-30 10:35 | -38.05028 | 145.01082 | 2985 ft | 216 kts | 301° |
| 2026-04-30 10:35 | -38.04285 | 144.99386 | 2993 ft | 230 kts | 310° |
| 2026-04-30 10:35 | -38.03068 | 144.98103 | 2996 ft | 229 kts | 331° |
| 2026-04-30 10:36 | -38.01663 | 144.97145 | 2981 ft | 230 kts | 334° |
| 2026-04-30 10:36 | -38.00243 | 144.96217 | 2989 ft | 230 kts | 334° |
| 2026-04-30 10:36 | -37.98850 | 144.95308 | 2972 ft | 222 kts | 334° |
| 2026-04-30 10:36 | -37.97490 | 144.94413 | 2974 ft | 220 kts | 334° |
| 2026-04-30 10:37 | -37.96130 | 144.93525 | 2979 ft | 219 kts | 334° |
| 2026-04-30 10:37 | -37.94780 | 144.92633 | 2981 ft | 219 kts | 334° |
| 2026-04-30 10:37 | -37.93460 | 144.91749 | 2692 ft | 210 kts | 334° |
| 2026-04-30 10:37 | -37.92136 | 144.90846 | 2515 ft | 217 kts | 333° |
| 2026-04-30 10:38 | -37.90846 | 144.89956 | 2477 ft | 196 kts | 334° |
| 2026-04-30 10:38 | -37.89683 | 144.89427 | 2426 ft | 168 kts | 349° |
| 2026-04-30 10:38 | -37.88548 | 144.89113 | 2505 ft | 166 kts | 348° |
| 2026-04-30 10:38 | -37.87429 | 144.88792 | 2421 ft | 158 kts | 348° |
| 2026-04-30 10:39 | -37.86357 | 144.88484 | 1905 ft | 161 kts | 349° |
| 2026-04-30 10:39 | -37.85244 | 144.88167 | 1828 ft | 165 kts | 349° |
| 2026-04-30 10:39 | -37.84123 | 144.87847 | 1776 ft | 166 kts | 349° |
| 2026-04-30 10:39 | -37.83001 | 144.87527 | 1710 ft | 165 kts | 349° |
| 2026-04-30 10:40 | -37.81882 | 144.87209 | 1657 ft | 166 kts | 349° |
| 2026-04-30 10:40 | -37.80758 | 144.86888 | 1644 ft | 164 kts | 349° |
| 2026-04-30 10:40 | -37.79705 | 144.86586 | 1592 ft | 146 kts | 349° |
| 2026-04-30 10:40 | -37.79057 | 144.86402 | 1630 ft | 143 kts | 349° |
| 2026-04-30 10:41 | -37.77774 | 144.86037 | 1648 ft | 140 kts | 349° |
| 2026-04-30 10:41 | -37.77140 | 144.85858 | 1646 ft | 141 kts | 349° |
| 2026-04-30 10:41 | -37.75850 | 144.85496 | 1594 ft | 143 kts | 350° |
| 2026-04-30 10:41 | -37.75210 | 144.85325 | 1474 ft | 141 kts | 350° |
| 2026-04-30 10:42 | -37.74237 | 144.85118 | 1342 ft | 142 kts | 354° |
| 2026-04-30 10:42 | -37.73226 | 144.84948 | 1163 ft | 149 kts | 354° |
| 2026-04-30 10:42 | -37.72183 | 144.84785 | 1036 ft | 152 kts | 353° |
| 2026-04-30 10:42 | -37.71132 | 144.84578 | 895 ft | 154 kts | 352° |
| 2026-04-30 10:43 | -37.70069 | 144.84373 | 722 ft | 155 kts | 352° |
| 2026-04-30 10:43 | -37.69018 | 144.84172 | 479 ft | 153 kts | 353° |
| 2026-04-30 10:43 | -37.67993 | 144.83991 | 365 ft | 136 kts | 352° |
| 2026-04-30 10:43 | -37.67242 | 144.83850 | 385 ft | 82 kts | 351° |
| 2026-04-30 10:44 | -37.66906 | 144.83879 | 393 ft | 30 kts | 17° |
| 2026-04-30 10:44 | -37.66825 | 144.83919 | 394 ft | 9 kts | 22° |
| 2026-04-30 10:44 | -37.66800 | 144.83932 | 399 ft | 0 kts | 22° |
| 2026-04-30 10:44 | -37.66750 | 144.83965 | 400 ft | 15 kts | 38° |
| 2026-04-30 10:45 | -37.66714 | 144.84069 | 402 ft | 13 kts | 91° |
| 2026-04-30 10:45 | -37.66746 | 144.84168 | 398 ft | 13 kts | 140° |
| 2026-04-30 10:45 | -37.66837 | 144.84201 | 397 ft | 16 kts | 172° |
| 2026-04-30 10:45 | -37.66956 | 144.84222 | 393 ft | 19 kts | 172° |
| 2026-04-30 10:46 | -37.67100 | 144.84249 | 391 ft | 22 kts | 172° |
| 2026-04-30 10:46 | -37.67262 | 144.84281 | 388 ft | 24 kts | 172° |
| 2026-04-30 10:46 | -37.67439 | 144.84311 | 384 ft | 27 kts | 172° |
| 2026-04-30 10:46 | -37.67635 | 144.84352 | 379 ft | 29 kts | 170° |
| 2026-04-30 10:47 | -37.67801 | 144.84400 | 376 ft | 20 kts | 149° |
| 2026-04-30 10:47 | -37.67830 | 144.84493 | 376 ft | 7 kts | 75° |
| 2026-04-30 10:47 | -37.67803 | 144.84574 | 378 ft | 11 kts | 45° |
| 2026-04-30 10:47 | -37.67756 | 144.84635 | 377 ft | 8 kts | 56° |
| 2026-04-30 10:48 | -37.67738 | 144.84721 | 379 ft | 12 kts | 81° |
| 2026-04-30 10:48 | -37.67741 | 144.84771 | 379 ft | 5 kts | 123° |
| 2026-04-30 10:48 | -37.67767 | 144.84780 | 378 ft | 4 kts | 175° |
| 2026-04-30 10:48 | -37.67814 | 144.84786 | 379 ft | 0 kts | 173° |